x

Diamond Shoals (41025) Wave Buoy

7:50 - Mon 30th May 2016 All times are EDT. -4 hours from GMT.

  • Sig Wave height 5.2ft
  • Swell Direction
  • Peak Period 9s
  • Average Period 5s
  • Wind
    25mph, 29mph gusts
  • Sea Temp 80°f
  • Luft Temp 77°f
  • Sea Pressure 1015.7mb
  • Diamond Shoals
  • Diamond Shoals

More Historic Weather Station data

Upgrade to MSW Pro to gain access to the past 30 days of data for over 8000 Wavebouys and Weather Stations around the globe.

Join Pro

Comparision Forecast

View Surf forecast
   
Mo 05/30 7:50 5ft 9s 5s 25 29 mph 1015.7mb 80f 77f
6:50 5ft 8s 5s 20 27 mph 1016mb 80f 78f
5:50 5ft 9s 6s 20 27 mph 1015.9mb 81f 75f
4:50 5ft 8s 5s 16 20 mph 1016mb 81f 76f
3:50 5ft 8s 5s 18 22 mph 1015.9mb 81f 76f
2:50 5.5ft 8s 5s 22 25 mph 1016mb 81f 78f
1:50 6ft 8s 5s 18 22 mph 1016.6mb 81f 77f
12:50 5ft 7s 5s 18 25 mph 1017.2mb 81f 77f
So 05/29 11:50 5ft 8s 5s 25 31 mph 1017.1mb 82f 78f
10:50 5.5ft 8s 5s 22 27 mph 1017.4mb 82f 79f
9:50 5ft 6s 5s 20 29 mph 1017.5mb 82f 77f
8:50 5ft 8s 5s 25 29 mph 1017.1mb 82f 78f
7:50 5ft 8s 5s 20 25 mph 1017.1mb 82f 79f
6:50 5ft 7s 5s 20 25 mph 1017mb 81f 79f
5:50 5.5ft 8s 5s 22 25 mph 1017.2mb 78f 78f
4:50 6ft 7s 5s 20 25 mph 1017.6mb 78f 79f
3:50 5.5ft 8s 5s 20 25 mph 1017.8mb 76f 79f
2:50 6ft 8s 6s 20 22 mph 1018.6mb 75f 79f
1:50 5.5ft 8s 6s 20 22 mph 1018.7mb 76f 79f
12:50 5ft 7s  -  18 20 mph 1019.1mb 75f 79f
11:50 5.5ft 8s 5s 20 22 mph 1019.3mb 76f 79f
10:50 5.5ft 8s 5s 20 22 mph 1019.3mb 76f 79f
9:50 6ft 6s 5s 20 25 mph 1019.2mb 76f 79f
8:50 5ft 6s 5s 22 27 mph 1019.3mb 75f 79f
7:50 5ft 8s 5s 25 29 mph 1018.6mb 76f 78f
6:50 4.5ft 8s 5s 18 22 mph 1018.8mb 78f 78f
5:50 4.5ft 8s 5s 18 22 mph 1018.7mb 79f 78f
4:50 4.5ft 8s 5s 16 20 mph 1018.2mb 79f 78f
3:50 4.5ft 8s 5s 18 20 mph 1018.5mb 79f 78f
2:50 4.5ft 8s 5s 16 18 mph 1019.1mb 78f 78f
1:50 4.5ft 8s 5s 16 18 mph 1019.3mb 78f 78f
12:50 4.5ft 5s 5s 18 20 mph 1019.7mb 78f 78f
Sa 05/28 11:50 4.5ft 9s 5s 16 18 mph 1019.9mb 78f 78f
10:50 4ft 8s 5s 18 20 mph 1020.1mb 78f 78f
9:50 4.5ft 8s 6s 16 18 mph 1020.2mb 78f 78f
8:50 4.5ft 8s 5s 13 18 mph 1020mb 78f 78f
7:50 4.5ft 8s 5s 13 18 mph 1020.2mb 78f 78f
6:50 5ft 8s 6s 11 13 mph 1020.2mb 79f 78f
5:50 5ft 8s 6s 11 13 mph 1020.3mb 79f 78f
4:50 5.5ft 8s 6s 11 13 mph 1020.8mb 78f 78f
3:50 5ft 8s 6s 11 13 mph 1020.9mb 78f 78f
2:50 5.5ft 8s 6s 11
mph
1021.1mb 78f 78f
1:50 6ft 8s 6s 13
mph
1021.6mb 78f 78f
12:50 5ft 9s 6s 13 16 mph 1022.2mb 78f 77f
11:50 5ft 9s 6s 13 18 mph 1022.3mb 78f 77f
10:50 4.5ft 8s 6s 13 18 mph 1021.9mb 78f 77f
9:50 4.5ft 8s 6s 13 16 mph 1021.7mb 78f 77f
8:50 4ft 7s 5s 13 16 mph 1021.6mb 78f 77f
7:50 4ft 9s 5s 13 18 mph 1021.2mb 78f 77f
6:50 3.5ft 8s 5s 13 16 mph 1021mb 78f 77f
5:50 4ft 9s 5s 11 16 mph 1020.6mb 78f 76f
4:50 4ft 8s 5s 13 16 mph 1020.2mb 78f 76f
3:50 3.5ft 8s 5s 13 16 mph 1020mb 78f 76f
2:50 3.5ft 8s 5s 16 18 mph 1020.2mb 78f 76f
1:50 3.5ft 6s 5s 13 16 mph 1020.4mb 78f 76f
12:50 3.5ft 8s 5s 11 13 mph 1020.9mb 78f 76f
Fr 05/27 11:50 3.5ft 8s 5s 11 13 mph 1021mb 78f 77f
10:50 3ft 8s 5s 11 13 mph 1021.1mb 78f 77f
9:50 2.5ft 8s 5s 11
mph
1021.2mb 78f 76f
8:50 3ft 8s 5s 11 13 mph 1020.8mb 78f 76f
7:50 2.5ft 7s 4s 11 13 mph 1020.8mb 78f 76f
6:50 2.5ft 7s 4s 11 13 mph 1020.3mb 78f 77f
5:50 2.5ft 4s 4s 13
mph
1020.4mb 78f 77f
4:50 2.5ft 7s 4s 11 13 mph 1020.7mb 78f 76f
3:50 2.5ft 8s 4s 13 18 mph 1020.8mb 78f 76f
2:50 2ft 8s 4s 13 18 mph 1021.1mb 79f 76f
1:50 2ft 8s 5s 13 16 mph 1021.6mb 82f 77f
12:50 2ft 8s 5s 11 13 mph 1022.1mb 82f 77f
11:50 1.6ft 8s 5s 9 11 mph 1022.3mb 82f 78f
10:50 1.6ft 7s 5s 7
mph
1022.3mb 82f 77f
9:50 1.6ft 8s 5s 2 4 mph 1022.3mb 81f 77f
8:50 1.6ft 8s 5s 7
mph
1022.4mb 81f 77f
7:50 1.6ft 8s 5s 2 4 mph 1022mb 82f 78f
6:50 2ft 8s 5s 7 9 mph 1022mb 80f 77f
5:50 1.6ft 8s 5s 4 7 mph 1021.7mb 78f 76f
4:50 2ft 7s 5s 9 13 mph 1021.5mb 78f 76f
3:50 2.5ft 8s 5s 11 16 mph 1021mb 72f 76f
2:50 2.5ft 8s 4s 11 16 mph 1020.7mb 73f 76f
1:50 2.5ft 8s 5s 16 18 mph 1020.7mb 71f 76f
12:50 2ft 8s 5s 11 13 mph 1021.4mb 71f 76f
Do 05/26 11:50 2ft 7s 5s 13 16 mph 1021.6mb 71f 77f
10:50 2ft 10s 5s 11 16 mph 1021.6mb 71f 76f
9:50 2ft 8s 5s 11 13 mph 1021.2mb 71f 76f
8:50 2ft 8s 5s 13 16 mph 1020.8mb 74f 76f
6:50 2ft 8s 6s 7 9 mph 1021.2mb 73f 76f
5:50 1.6ft 8s 6s 7 9 mph 1021.5mb 73f 76f
4:50 2ft 8s 6s 4
mph
1021.5mb 73f 75f
3:50 1.6ft 9s 5s 7 9 mph 1021.8mb 73f 75f
2:50 2ft 8s 6s 7
mph
1021.9mb 72f 74f
1:50 2ft 9s 6s 7 9 mph 1021.9mb 71f 74f